Flight Track Log - Related Links

Times and Time Zones

All times are in EDT time to prevent confusion due to time zone crossing. See the N1C flight status page for this flight to view local times or setup timezone preferences in your user account.

Time Position Orientation Groundspeed Altitude Reporting Facility
EDT Latitude Longitude Course Direction KTS MPH feet Rate Location/Type
Sun 06:03:07 PM 40.6070 -73.7910 210° Southwest 285 328 5,700  Level FlightAware ADS-B
Sun 06:03:25 PM 40.5860 -73.8060 208° Southwest 276 318 5,700  Level FlightAware ADS-B
Sun 06:03:50 PM 40.5590 -73.8260 209° Southwest 272 313 5,700  Level FlightAware ADS-B
Sun 06:04:11 PM 40.5350 -73.8440 210° Southwest 274 315 5,700  Level FlightAware ADS-B
Sun 06:04:31 PM 40.5130 -73.8610 210° Southwest 274 315 5,700  Level FlightAware ADS-B
Sun 06:04:39 PM 40.5038 -73.8673 208° Southwest 274 315 5,700  Level FlightAware ADS-B
Sun 06:04:53 PM 40.4884 -73.8787 209° Southwest 273 314 5,700  Level FlightAware ADS-B
Sun 06:04:56 PM 40.4855 -73.8809 210° Southwest 274 315 5,700 250 Level FlightAware ADS-B
Sun 06:05:17 PM 40.4626 -73.8979 209° Southwest 274 315 5,800 750 Climbing FlightAware ADS-B
Sun 06:05:36 PM 40.4418 -73.9132 209° Southwest 274 315 6,200 1,059 Climbing FlightAware ADS-B
Sun 06:05:51 PM 40.4249 -73.9258 210° Southwest 275 316 6,400 774 Climbing FlightAware ADS-B
Sun 06:06:07 PM 40.4071 -73.9388 209° Southwest 277 319 6,600 909 Climbing FlightAware ADS-B
Sun 06:06:24 PM 40.3875 -73.9533 209° Southwest 281 323 6,900 1,059 Climbing FlightAware ADS-B
Sun 06:06:41 PM 40.3686 -73.9671 209° Southwest 283 326 7,200 1,125 Climbing FlightAware ADS-B
Sun 06:06:56 PM 40.3514 -73.9797 209° Southwest 284 327 7,500 1,000 Climbing FlightAware ADS-B
Sun 06:07:11 PM 40.3339 -73.9924 209° Southwest 285 328 7,700 387 Climbing FlightAware ADS-B
Sun 06:07:27 PM 40.3159 -74.0055 209° Southwest 284 327 7,700  Level FlightAware ADS-B
Sun 06:07:54 PM 40.2847 -74.0284 209° Southwest 285 328 7,700  Level FlightAware ADS-B
Sun 06:08:15 PM 40.2605 -74.0462 209° Southwest 285 328 7,700  Level FlightAware ADS-B
Sun 06:08:33 PM 40.2398 -74.0615 209° Southwest 286 329 7,700  Level FlightAware ADS-B
Sun 06:09:06 PM 40.2040 -74.0880 209° Southwest 284 327 7,700  Level FlightAware ADS-B
Sun 06:09:27 PM 40.1777 -74.1070 209° Southwest 284 327 7,700  Level FlightAware ADS-B
Sun 06:09:52 PM 40.1492 -74.1277 209° Southwest 284 327 7,700  Level FlightAware ADS-B
Sun 06:10:09 PM 40.1298 -74.1419 209° Southwest 284 327 7,700  Level FlightAware ADS-B
Sun 06:10:24 PM 40.1124 -74.1546 209° Southwest 284 327 7,700  Level FlightAware ADS-B
Sun 06:11:01 PM 40.0717 -74.1909 214° Southwest 286 329 7,700  Level FlightAware ADS-B
Sun 06:11:20 PM 40.0518 -74.2094 215° Southwest 286 329 7,700  Level FlightAware ADS-B
Sun 06:11:39 PM 40.0312 -74.2286 216° Southwest 284 327 7,700  Level FlightAware ADS-B
Sun 06:11:57 PM 40.0120 -74.2468 216° Southwest 285 328 7,700  Level FlightAware ADS-B
Sun 06:12:13 PM 39.9948 -74.2631 216° Southwest 284 327 7,700  Level FlightAware ADS-B
Sun 06:12:30 PM 39.9772 -74.2801 217° Southwest 285 328 7,700  Level FlightAware ADS-B
Sun 06:12:46 PM 39.9601 -74.2965 216° Southwest 286 329 7,700  Level FlightAware ADS-B
Sun 06:13:01 PM 39.9437 -74.3121 216° Southwest 284 327 7,700 -188 Level FlightAware ADS-B
Sun 06:13:18 PM 39.9261 -74.3290 216° Southwest 284 327 7,600 -686 Descending FlightAware ADS-B
Sun 06:13:36 PM 39.9071 -74.3470 216° Southwest 283 326 7,300 -769 Descending FlightAware ADS-B
Sun 06:13:57 PM 39.8848 -74.3682 216° Southwest 281 323 7,100 -811 Descending FlightAware ADS-B
Sun 06:14:13 PM 39.8681 -74.3838 216° Southwest 280 322 6,800 -1,161 Descending FlightAware ADS-B
Sun 06:14:28 PM 39.8519 -74.3988 215° Southwest 278 320 6,500 -1,200 Descending FlightAware ADS-B
Sun 06:14:43 PM 39.8362 -74.4136 216° Southwest 276 318 6,200 -1,091 Descending FlightAware ADS-B
Sun 06:14:50 PM 39.8298 -74.4202 218° Southwest 275 316 6,100 -1,125 Descending FlightAware ADS-B
Sun 06:14:59 PM 39.8210 -74.4311 224° Southwest 273 314 5,900 -947 Descending FlightAware ADS-B
Sun 06:15:09 PM 39.8132 -74.4426 229° Southwest 272 313 5,800 -600 Descending FlightAware ADS-B
Sun 06:15:19 PM 39.8053 -74.4560 232° Southwest 270 311 5,700 -429 Descending FlightAware ADS-B
Sun 06:15:23 PM 39.8024 -74.4614 235° Southwest 269 310 5,700  Level FlightAware ADS-B
Sun 06:15:38 PM 39.7919 -74.4819 236° Southwest 270 311 5,700  Level FlightAware ADS-B
Sun 06:15:55 PM 39.7806 -74.5035 236° Southwest 271 312 5,700  Level FlightAware ADS-B
Sun 06:16:10 PM 39.7695 -74.5245 235° Southwest 271 312 5,700  Level FlightAware ADS-B
Sun 06:16:29 PM 39.7562 -74.5496 235° Southwest 271 312 5,700  Level FlightAware ADS-B
Sun 06:16:47 PM 39.7436 -74.5737 236° Southwest 271 312 5,700  Level FlightAware ADS-B
Sun 06:17:03 PM 39.7323 -74.5956 236° Southwest 271 312 5,700  Level FlightAware ADS-B
Sun 06:17:18 PM 39.7218 -74.6160 236° Southwest 270 311 5,700  Level FlightAware ADS-B
Sun 06:17:35 PM 39.7098 -74.6392 236° Southwest 270 311 5,700 -182 Level FlightAware ADS-B
Sun 06:17:51 PM 39.6990 -74.6599 236° Southwest 271 312 5,600  Descending FlightAware ADS-B
Sun 06:18:08 PM 39.6870 -74.6827 236° Southwest 271 312 5,700 176 Climbing FlightAware ADS-B
Sun 06:18:25 PM 39.6749 -74.7056 236° Southwest 272 313 5,700  Level FlightAware ADS-B
Sun 06:18:41 PM 39.6636 -74.7272 236° Southwest 272 313 5,700  Level FlightAware ADS-B
Sun 06:18:58 PM 39.6518 -74.7498 236° Southwest 272 313 5,700  Level FlightAware ADS-B
Sun 06:19:14 PM 39.6400 -74.7725 236° Southwest 272 313 5,700  Level FlightAware ADS-B
Sun 06:19:30 PM 39.6291 -74.7934 236° Southwest 274 315 5,700  Level FlightAware ADS-B
Sun 06:19:51 PM 39.6143 -74.8215 236° Southwest 273 314 5,700  Level FlightAware ADS-B
Sun 06:20:07 PM 39.6029 -74.8431 236° Southwest 272 313 5,700  Level FlightAware ADS-B
Sun 06:20:27 PM 39.5892 -74.8706 237° Southwest 272 313 5,700  Level FlightAware ADS-B
Sun 06:20:32 PM 39.5866 -74.8774 244° Southwest 272 313 5,700  Level FlightAware ADS-B
Sun 06:20:38 PM 39.5833 -74.8870 246° West 271 312 5,700  Level FlightAware ADS-B
Sun 06:20:54 PM 39.5753 -74.9106 246° West 270 311 5,700  Level FlightAware ADS-B
Sun 06:21:09 PM 39.5677 -74.9330 246° West 270 311 5,700  Level FlightAware ADS-B
Sun 06:21:25 PM 39.5597 -74.9567 246° West 270 311 5,700  Level FlightAware ADS-B
Sun 06:21:40 PM 39.5522 -74.9789 246° West 270 311 5,700  Level FlightAware ADS-B
Sun 06:21:49 PM 39.5483 -74.9919 249° West 268 308 5,700  Level FlightAware ADS-B
Sun 06:21:53 PM 39.5473 -74.9979 258° West 268 308 5,700  Level FlightAware ADS-B
Sun 06:21:56 PM 39.5470 -75.0035 266° West 268 308 5,700  Level FlightAware ADS-B
Sun 06:22:00 PM 39.5472 -75.0099 272° West 269 310 5,700  Level FlightAware ADS-B
Sun 06:22:15 PM 39.5494 -75.0342 277° West 268 308 5,700  Level FlightAware ADS-B
Sun 06:22:30 PM 39.5519 -75.0584 278° West 268 308 5,700  Level FlightAware ADS-B
Sun 06:22:46 PM 39.5544 -75.0832 277° West 268 308 5,700  Level FlightAware ADS-B
Sun 06:23:02 PM 39.5571 -75.1086 278° West 267 307 5,700  Level FlightAware ADS-B
Sun 06:23:20 PM 39.5600 -75.1370 278° West 269 310 5,700  Level FlightAware ADS-B
Sun 06:23:36 PM 39.5626 -75.1619 278° West 269 310 5,700  Level FlightAware ADS-B
Sun 06:23:51 PM 39.5651 -75.1862 278° West 269 310 5,700  Level FlightAware ADS-B
Sun 06:24:06 PM 39.5677 -75.2111 278° West 268 308 5,700  Level FlightAware ADS-B
Sun 06:24:21 PM 39.5701 -75.2350 277° West 268 308 5,700  Level FlightAware ADS-B
Sun 06:24:37 PM 39.5728 -75.2593 278° West 270 311 5,700 -194 Level FlightAware ADS-B
Sun 06:24:52 PM 39.5753 -75.2835 278° West 271 312 5,600 -692 Descending FlightAware ADS-B
Sun 06:25:03 PM 39.5773 -75.3016 278° West 270 311 5,400 -1,200 Descending FlightAware ADS-B
Sun 06:25:07 PM 39.5782 -75.3078 281° West 269 310 5,300 -1,800 Descending FlightAware ADS-B
Sun 06:25:13 PM 39.5801 -75.3168 285° West 267 307 5,100 -1,636 Descending FlightAware ADS-B
Sun 06:25:18 PM 39.5820 -75.3240 289° West 265 305 5,000 -1,385 Descending FlightAware ADS-B
Sun 06:25:26 PM 39.5859 -75.3362 293° West 262 302 4,800 -1,636 Descending FlightAware ADS-B
Sun 06:25:40 PM 39.5933 -75.3557 296° West 257 296 4,400 -1,636 Descending FlightAware ADS-B
Sun 06:25:48 PM 39.5978 -75.3658 300° West 256 295 4,200 -1,667 Descending FlightAware ADS-B
Sun 06:25:58 PM 39.6048 -75.3793 304° West 255 293 3,900 -1,875 Descending FlightAware ADS-B
Sun 06:26:04 PM 39.6087 -75.3857 308° West 255 293 3,700 -1,800 Descending FlightAware ADS-B
Sun 06:26:08 PM 39.6121 -75.3907 311° West 254 292 3,600 -1,800 Descending FlightAware ADS-B
Sun 06:26:14 PM 39.6167 -75.3966 315° West 254 292 3,400 -2,000 Descending FlightAware ADS-B
Sun 06:26:17 PM 39.6195 -75.4001 316° Northwest 252 290 3,300 -2,571 Descending FlightAware ADS-B
Sun 06:26:35 PM 39.6351 -75.4181 318° Northwest 249 287 2,500 -2,516 Descending FlightAware ADS-B
Sun 06:26:48 PM 39.6464 -75.4304 320° Northwest 237 273 2,000 -1,886 Descending FlightAware ADS-B
Sun 06:27:10 PM 39.6637 -75.4493 320° Northwest 223 257 1,400 -923 Descending FlightAware ADS-B
Sun 06:27:27 PM 39.6769 -75.4638 320° Northwest 208 239 1,400 -171 Level FlightAware ADS-B
Sun 06:27:45 PM 39.6898 -75.4780 320° Northwest 199 229 1,300 -316 Descending FlightAware ADS-B
Sun 06:28:05 PM 39.6992 -75.4949 306° West 171 197 1,200 -400 Descending FlightAware ADS-B
Sun 06:28:15 PM 39.6997 -75.5051 274° West 164 189 1,100 -706 Descending FlightAware ADS-B
Sun 06:28:22 PM 39.6984 -75.5119 256° West 166 191 1,000 -474 Descending FlightAware ADS-B
Sun 06:28:53 PM 39.6930 -75.5350 253° West 155 178 800 -214 Descending FlightAware ADS-B
Sun 06:29:18 PM 39.6900 -75.5540 258° West 155 178 800  Level FlightAware ADS-B
Sun 06:36:00 PM 39.6667 -75.6000 282° West  Level FlightAware Approximate
Sun 06:37:00 PM 39.6787 -75.6066 282° West  Level Estimated

Login

Don't have an account? Register now (free) for customized features, flight alerts, and more!